Time;durP1;ratioP1;P1;durP2;ratioP2;P2;SDS_P1;SDS_P2;PMS_P1;PMS_P2;Temp;Humidity;BMP_temperature;BMP_pressure;BME280_temperature;BME280_humidity;BME280_pressure;Samples;Min_cycle;Max_cycle;Signal;HPM_P1;HPM_P2
2023/12/03 00:00:14;;;;;;;2.67;2.17;;;6.20;89.50;;;;;;5083572;28;20209;-63
2023/12/03 00:02:42;;;;;;;2.97;2.17;;;6.30;90.00;;;;;;5081415;28;20240;-63
2023/12/03 00:05:11;;;;;;;3.67;2.03;;;6.30;90.20;;;;;;5080536;28;20207;-63
2023/12/03 00:07:38;;;;;;;2.10;1.90;;;6.40;90.40;;;;;;5081454;28;20200;-62
2023/12/03 00:10:06;;;;;;;1.77;1.67;;;6.50;90.70;;;;;;5084395;28;20287;-63
2023/12/03 00:12:33;;;;;;;1.87;1.70;;;6.60;90.80;;;;;;5084670;28;20197;-63
2023/12/03 00:15:01;;;;;;;1.97;1.47;;;6.70;91.00;;;;;;5081196;28;20214;-63
2023/12/03 00:17:28;;;;;;;1.53;1.43;;;6.80;91.10;;;;;;5078472;28;20631;-63
2023/12/03 00:19:55;;;;;;;1.70;1.40;;;6.80;91.20;;;;;;5082040;28;20618;-63
2023/12/03 00:22:22;;;;;;;1.50;1.40;;;6.90;91.40;;;;;;5078306;28;20629;-64
2023/12/03 00:24:49;;;;;;;2.03;1.60;;;6.90;91.60;;;;;;5064722;28;20608;-63
2023/12/03 00:27:16;;;;;;;1.50;1.30;;;7.00;91.70;;;;;;5072486;28;20204;-63
2023/12/03 00:29:43;;;;;;;1.50;1.40;;;7.00;91.70;;;;;;5083693;28;20222;-63
2023/12/03 00:32:10;;;;;;;2.03;1.50;;;7.00;91.80;;;;;;5065191;28;20217;-63
2023/12/03 00:34:37;;;;;;;3.77;1.80;;;7.00;91.80;;;;;;5080762;28;20218;-63
2023/12/03 00:37:04;;;;;;;3.10;1.53;;;7.10;91.90;;;;;;5086220;28;20199;-63
2023/12/03 00:39:31;;;;;;;3.53;1.67;;;7.00;92.00;;;;;;5079160;28;20515;-63
2023/12/03 00:41:58;;;;;;;3.33;1.30;;;7.10;92.00;;;;;;5081107;28;20268;-63
2023/12/03 00:44:26;;;;;;;2.60;2.40;;;7.10;92.10;;;;;;5082492;28;20313;-63
2023/12/03 00:46:53;;;;;;;1.70;1.57;;;7.10;92.10;;;;;;5081900;28;20226;-63
2023/12/03 00:49:19;;;;;;;3.57;1.50;;;7.10;92.20;;;;;;5083472;28;20712;-62
2023/12/03 00:51:47;;;;;;;1.57;1.47;;;7.00;92.20;;;;;;5084201;28;20227;-62
2023/12/03 00:54:14;;;;;;;9.50;2.47;;;7.00;92.20;;;;;;5085232;28;20611;-63
2023/12/03 00:56:41;;;;;;;2.60;1.27;;;7.00;92.20;;;;;;5088118;28;20186;-63
2023/12/03 00:59:08;;;;;;;3.83;1.60;;;7.00;92.30;;;;;;5081530;28;20202;-63
2023/12/03 01:01:35;;;;;;;1.60;1.30;;;6.90;92.30;;;;;;5085058;28;20276;-63
2023/12/03 01:04:02;;;;;;;2.33;1.23;;;6.90;92.30;;;;;;5085994;28;20247;-63
2023/12/03 01:06:29;;;;;;;3.10;1.70;;;6.80;92.30;;;;;;5082540;28;20253;-63
2023/12/03 01:08:56;;;;;;;3.07;1.57;;;6.80;92.30;;;;;;5083410;28;20646;-63
2023/12/03 01:11:23;;;;;;;2.50;1.40;;;6.80;92.40;;;;;;5082992;28;20247;-63
2023/12/03 01:14:03;;;;;;;2.20;1.43;;;6.70;92.40;;;;;;5071053;28;20204;-63
2023/12/03 01:16:30;;;;;;;2.10;1.37;;;6.70;92.50;;;;;;5081624;28;20194;-63
2023/12/03 01:18:58;;;;;;;2.93;1.47;;;6.60;92.50;;;;;;5085079;28;20684;-63
2023/12/03 01:21:25;;;;;;;3.70;1.60;;;6.60;92.50;;;;;;5086714;28;20642;-63
2023/12/03 01:23:52;;;;;;;2.17;1.70;;;6.50;92.50;;;;;;5080567;28;20198;-63
2023/12/03 01:26:20;;;;;;;4.13;1.40;;;6.50;92.60;;;;;;5081742;28;20619;-63
2023/12/03 01:28:47;;;;;;;3.00;1.30;;;6.50;92.60;;;;;;5085695;28;20307;-63
2023/12/03 01:31:14;;;;;;;2.27;1.30;;;6.40;92.60;;;;;;5089619;28;20733;-63
2023/12/03 01:33:41;;;;;;;2.43;1.40;;;6.40;92.70;;;;;;5085168;28;20526;-63
2023/12/03 01:36:08;;;;;;;3.13;1.40;;;6.30;92.80;;;;;;5087882;28;20518;-63
2023/12/03 01:38:35;;;;;;;3.00;1.50;;;6.30;92.80;;;;;;5081940;28;20575;-63
2023/12/03 01:41:03;;;;;;;1.93;1.53;;;6.30;92.90;;;;;;5081601;28;20206;-63
2023/12/03 01:43:30;;;;;;;2.47;1.10;;;6.30;92.90;;;;;;5081669;28;20212;-63
2023/12/03 01:45:56;;;;;;;1.33;1.30;;;6.20;92.90;;;;;;5086244;28;20198;-63
2023/12/03 01:48:25;;;;;;;3.57;1.33;;;6.20;93.00;;;;;;5084825;28;20218;-63
2023/12/03 01:50:54;;;;;;;1.50;1.40;;;6.20;93.10;;;;;;5087668;28;20202;-63
2023/12/03 01:53:22;;;;;;;2.27;1.40;;;6.20;93.20;;;;;;5085686;28;20233;-63
2023/12/03 01:55:49;;;;;;;3.03;1.73;;;6.20;93.30;;;;;;5083016;28;20194;-63
2023/12/03 01:58:16;;;;;;;3.57;1.43;;;6.20;93.40;;;;;;5080963;28;20201;-63
2023/12/03 02:00:43;;;;;;;4.40;2.13;;;6.20;93.40;;;;;;5083970;28;20647;-64
2023/12/03 02:03:16;;;;;;;2.17;1.63;;;6.20;93.40;;;;;;5082083;28;20271;-63
2023/12/03 02:06:02;;;;;;;1.50;1.40;;;6.20;93.50;;;;;;5081698;28;20205;-63
2023/12/03 02:08:29;;;;;;;2.03;1.40;;;6.20;93.50;;;;;;5082579;28;20193;-63
2023/12/03 02:10:57;;;;;;;4.60;1.80;;;6.10;93.40;;;;;;5086415;28;20225;-63
2023/12/03 02:13:27;;;;;;;4.00;1.50;;;6.10;93.40;;;;;;5086694;28;20328;-63
2023/12/03 02:15:54;;;;;;;2.00;1.80;;;6.10;93.50;;;;;;5080979;28;20496;-63
2023/12/03 02:18:21;;;;;;;3.17;1.60;;;6.10;93.50;;;;;;5083317;28;20202;-63
2023/12/03 02:20:48;;;;;;;3.20;1.67;;;6.20;93.60;;;;;;5083095;28;20386;-63
2023/12/03 02:23:15;;;;;;;3.87;1.43;;;6.10;93.70;;;;;;5091066;28;20235;-63
2023/12/03 02:25:42;;;;;;;2.93;1.40;;;6.10;93.70;;;;;;5082120;28;20276;-63
2023/12/03 02:28:09;;;;;;;4.07;1.60;;;6.20;93.80;;;;;;5086871;28;20714;-63
2023/12/03 02:30:36;;;;;;;5.10;1.70;;;6.20;93.90;;;;;;5081301;28;20221;-63
2023/12/03 02:33:03;;;;;;;6.30;1.67;;;6.20;93.90;;;;;;5083633;28;20207;-63
2023/12/03 02:35:30;;;;;;;3.03;1.53;;;6.20;94.00;;;;;;5085307;28;20190;-63
2023/12/03 02:37:57;;;;;;;2.50;1.33;;;6.30;94.00;;;;;;5080134;28;20231;-63
2023/12/03 02:40:24;;;;;;;5.90;1.83;;;6.30;94.00;;;;;;5082148;28;20217;-64
2023/12/03 02:42:51;;;;;;;5.57;1.80;;;6.20;94.00;;;;;;5082126;28;20615;-63
2023/12/03 02:45:18;;;;;;;2.20;1.70;;;6.30;94.10;;;;;;5088650;28;20279;-63
2023/12/03 02:47:45;;;;;;;2.87;1.90;;;6.30;94.10;;;;;;5083839;28;20202;-63
2023/12/03 02:50:12;;;;;;;3.57;1.50;;;6.30;94.10;;;;;;5077783;28;20217;-63
2023/12/03 02:52:40;;;;;;;1.83;1.13;;;6.30;94.10;;;;;;5080571;28;20198;-63
2023/12/03 02:55:08;;;;;;;6.07;1.60;;;6.30;94.10;;;;;;5082651;28;20202;-63
2023/12/03 02:57:35;;;;;;;2.73;1.70;;;6.30;94.10;;;;;;5082254;28;20222;-64
2023/12/03 03:00:04;;;;;;;2.20;1.57;;;6.30;94.00;;;;;;5085126;28;20225;-63
2023/12/03 03:02:35;;;;;;;3.00;1.67;;;6.20;94.00;;;;;;5084112;28;20213;-63
2023/12/03 03:05:02;;;;;;;3.60;2.07;;;6.20;94.00;;;;;;5081573;28;20307;-63
2023/12/03 03:07:29;;;;;;;2.63;1.80;;;6.20;94.00;;;;;;5083249;28;20212;-63
2023/12/03 03:09:56;;;;;;;6.23;1.87;;;6.10;94.10;;;;;;5083047;28;20217;-63
2023/12/03 03:12:23;;;;;;;1.80;1.43;;;6.10;94.20;;;;;;5084759;28;20193;-63
2023/12/03 03:14:50;;;;;;;2.47;1.63;;;6.10;94.50;;;;;;5083629;28;20193;-63
2023/12/03 03:17:17;;;;;;;2.40;1.80;;;6.10;94.20;;;;;;5082011;28;20517;-63
2023/12/03 03:19:44;;;;;;;2.87;1.77;;;6.10;94.30;;;;;;5080639;28;20205;-63
2023/12/03 03:22:12;;;;;;;2.10;1.70;;;6.10;94.30;;;;;;5082772;28;20299;-63
2023/12/03 03:24:40;;;;;;;4.37;1.43;;;6.10;94.30;;;;;;5080016;28;20643;-63
2023/12/03 03:27:07;;;;;;;5.73;1.83;;;6.00;94.20;;;;;;5086625;28;20209;-65
2023/12/03 03:29:35;;;;;;;3.23;1.93;;;6.10;94.20;;;;;;5081968;28;20221;-62
2023/12/03 03:32:03;;;;;;;4.27;1.90;;;6.00;94.20;;;;;;5078674;28;20273;-63
2023/12/03 03:34:30;;;;;;;5.03;2.67;;;6.00;94.30;;;;;;5082439;28;21302;-63
2023/12/03 03:36:57;;;;;;;1.83;1.57;;;6.00;94.40;;;;;;5090205;28;20229;-63
2023/12/03 03:39:24;;;;;;;2.40;1.87;;;6.00;94.50;;;;;;5079250;28;20284;-64
2023/12/03 03:41:51;;;;;;;3.27;1.93;;;6.00;94.50;;;;;;5075009;28;20971;-63
2023/12/03 03:44:18;;;;;;;3.47;1.83;;;6.00;94.50;;;;;;5065431;28;20661;-63
2023/12/03 03:46:44;;;;;;;3.73;1.93;;;6.00;94.50;;;;;;5081892;28;20232;-63
2023/12/03 03:49:11;;;;;;;3.10;2.03;;;6.00;94.50;;;;;;5085070;28;20271;-63
2023/12/03 03:51:38;;;;;;;4.70;2.50;;;6.00;94.50;;;;;;5082657;28;20198;-63
2023/12/03 03:54:05;;;;;;;2.53;2.17;;;6.00;94.50;;;;;;5079040;28;20201;-63
2023/12/03 03:56:33;;;;;;;3.30;2.13;;;6.00;94.60;;;;;;5066138;28;20198;-63
2023/12/03 03:58:59;;;;;;;5.57;2.57;;;6.00;94.60;;;;;;5085880;28;20630;-63
2023/12/03 04:01:26;;;;;;;2.47;1.83;;;6.00;94.60;;;;;;5084492;28;20212;-63
2023/12/03 04:03:53;;;;;;;2.83;2.30;;;6.00;94.60;;;;;;5081629;28;20243;-63
2023/12/03 04:06:20;;;;;;;4.47;2.40;;;6.00;94.70;;;;;;5082932;28;20209;-63
2023/12/03 04:08:48;;;;;;;3.70;2.00;;;6.10;94.80;;;;;;5081215;28;20596;-63
2023/12/03 04:11:15;;;;;;;3.07;2.17;;;6.10;94.90;;;;;;5083605;28;20707;-63
2023/12/03 04:13:42;;;;;;;3.03;2.47;;;6.10;94.90;;;;;;5083931;28;20243;-63
2023/12/03 04:16:19;;;;;;;2.70;2.40;;;6.10;94.90;;;;;;5086159;28;20197;-63
2023/12/03 04:18:46;;;;;;;2.07;1.87;;;6.20;94.90;;;;;;5080392;28;20201;-63
2023/12/03 04:21:15;;;;;;;2.43;2.13;;;6.20;94.90;;;;;;5084402;28;20228;-63
2023/12/03 04:23:42;;;;;;;7.00;2.70;;;6.20;95.00;;;;;;5089300;28;20198;-63
2023/12/03 04:26:09;;;;;;;9.00;2.30;;;6.30;95.10;;;;;;5085285;28;20533;-63
2023/12/03 04:28:39;;;;;;;2.87;2.10;;;6.30;95.10;;;;;;5073487;28;20220;-63
2023/12/03 04:31:16;;;;;;;1.83;1.67;;;6.30;95.10;;;;;;5072108;28;20205;-63
2023/12/03 04:33:43;;;;;;;4.67;2.40;;;6.30;95.10;;;;;;5080082;28;20258;-63
2023/12/03 04:36:11;;;;;;;3.97;2.17;;;6.30;95.10;;;;;;5083809;28;20283;-63
2023/12/03 04:38:38;;;;;;;2.80;2.50;;;6.30;95.10;;;;;;5089403;28;20224;-63
2023/12/03 04:41:05;;;;;;;5.17;2.70;;;6.30;95.10;;;;;;5085599;28;20630;-63
2023/12/03 04:43:32;;;;;;;3.97;2.43;;;6.30;95.00;;;;;;5081918;28;20263;-63
2023/12/03 04:46:04;;;;;;;3.10;2.40;;;6.30;95.00;;;;;;5083735;28;20194;-63
2023/12/03 04:48:32;;;;;;;3.43;2.27;;;6.30;95.10;;;;;;5090423;28;20204;-63
2023/12/03 04:50:59;;;;;;;4.13;2.43;;;6.30;95.10;;;;;;5087722;28;20270;-63
2023/12/03 04:53:26;;;;;;;5.83;2.63;;;6.30;95.50;;;;;;5088107;28;20617;-63
2023/12/03 04:55:53;;;;;;;5.50;2.60;;;6.30;95.20;;;;;;5083343;28;20186;-63
2023/12/03 04:58:20;;;;;;;6.90;2.33;;;6.40;95.30;;;;;;5082666;28;20220;-63
2023/12/03 05:00:47;;;;;;;5.33;2.27;;;6.40;95.40;;;;;;5086914;28;20204;-63
2023/12/03 05:03:14;;;;;;;2.93;2.20;;;6.40;95.30;;;;;;5084172;28;20237;-63
2023/12/03 05:05:41;;;;;;;4.87;2.47;;;6.30;95.20;;;;;;5086850;28;20206;-63
2023/12/03 05:08:08;;;;;;;3.10;2.40;;;6.30;95.30;;;;;;5084868;28;20284;-63
2023/12/03 05:10:35;;;;;;;3.87;2.50;;;6.30;95.40;;;;;;5083845;28;20678;-63
2023/12/03 05:13:02;;;;;;;5.67;2.80;;;6.30;95.30;;;;;;5082450;28;20207;-63
2023/12/03 05:15:29;;;;;;;5.03;2.73;;;6.30;95.30;;;;;;5089971;28;20198;-63
2023/12/03 05:17:56;;;;;;;5.03;2.60;;;6.30;95.60;;;;;;5086377;28;20207;-62
2023/12/03 05:20:23;;;;;;;7.83;2.77;;;6.20;95.40;;;;;;5081998;28;20203;-62
2023/12/03 05:22:51;;;;;;;6.97;2.63;;;6.20;95.50;;;;;;5084020;28;20206;-62
2023/12/03 05:25:18;;;;;;;5.77;3.10;;;6.20;95.50;;;;;;5087315;28;20254;-63
2023/12/03 05:27:46;;;;;;;5.23;2.80;;;6.20;95.60;;;;;;5082944;28;20616;-63
2023/12/03 05:30:14;;;;;;;3.77;2.47;;;6.20;95.50;;;;;;5085108;28;20222;-63
2023/12/03 05:32:42;;;;;;;6.07;2.30;;;6.20;95.50;;;;;;5085470;28;20258;-63
2023/12/03 05:35:10;;;;;;;3.53;2.90;;;6.20;95.50;;;;;;5080958;28;20604;-63
2023/12/03 05:37:38;;;;;;;4.63;2.73;;;6.20;95.50;;;;;;5080076;28;21602;-63
2023/12/03 05:40:08;;;;;;;5.23;3.27;;;6.10;95.50;;;;;;5085203;28;20204;-63
2023/12/03 05:42:35;;;;;;;3.37;2.37;;;6.10;95.50;;;;;;5081542;28;20195;-63
2023/12/03 05:45:03;;;;;;;3.73;2.87;;;6.10;95.50;;;;;;5084668;28;20288;-63
2023/12/03 05:47:31;;;;;;;3.97;2.40;;;6.00;95.50;;;;;;5084128;28;20225;-63
2023/12/03 05:50:00;;;;;;;6.37;3.20;;;6.00;95.60;;;;;;5086543;28;20304;-63
2023/12/03 05:52:28;;;;;;;9.13;3.20;;;5.90;95.60;;;;;;5068208;28;20208;-63
2023/12/03 05:54:55;;;;;;;3.87;2.33;;;5.90;95.60;;;;;;5083351;28;20248;-63
2023/12/03 05:57:22;;;;;;;4.77;2.53;;;5.90;95.60;;;;;;5080752;28;20703;-63
2023/12/03 05:59:50;;;;;;;3.73;2.90;;;5.90;95.60;;;;;;5083279;28;20212;-63
2023/12/03 06:02:18;;;;;;;5.13;2.90;;;5.90;95.60;;;;;;5079034;28;20212;-64
2023/12/03 06:04:45;;;;;;;4.27;2.80;;;5.80;95.50;;;;;;5086233;28;20226;-63
2023/12/03 06:07:12;;;;;;;4.30;2.87;;;5.80;95.50;;;;;;5082337;28;20224;-63
2023/12/03 06:09:39;;;;;;;6.13;3.17;;;5.80;95.60;;;;;;5069365;28;20518;-63
2023/12/03 06:12:07;;;;;;;5.50;3.43;;;5.70;95.60;;;;;;5084825;28;20549;-63
2023/12/03 06:14:34;;;;;;;5.63;3.27;;;5.70;95.60;;;;;;5080628;28;20190;-63
2023/12/03 06:17:01;;;;;;;5.93;3.50;;;5.60;95.70;;;;;;5086360;28;20280;-63
2023/12/03 06:19:28;;;;;;;4.53;2.43;;;5.60;95.70;;;;;;5085311;28;20277;-63
2023/12/03 06:21:57;;;;;;;4.33;2.70;;;5.50;95.60;;;;;;5084042;28;20194;-63
2023/12/03 06:24:25;;;;;;;2.97;2.67;;;5.50;95.50;;;;;;5062529;28;20206;-63
2023/12/03 06:26:54;;;;;;;4.73;2.83;;;5.40;95.40;;;;;;5064219;28;20202;-63
2023/12/03 06:29:21;;;;;;;3.73;2.93;;;5.30;95.70;;;;;;5078808;28;20215;-63
2023/12/03 06:31:48;;;;;;;4.33;3.10;;;5.20;95.40;;;;;;5075144;28;20213;-63
2023/12/03 06:34:16;;;;;;;4.07;2.70;;;5.10;95.40;;;;;;5084296;28;20236;-63
2023/12/03 06:36:43;;;;;;;4.83;2.70;;;5.10;95.40;;;;;;5066252;28;20203;-63
2023/12/03 06:39:10;;;;;;;3.53;2.50;;;5.00;95.40;;;;;;5083447;28;20627;-63
2023/12/03 06:41:38;;;;;;;4.07;3.07;;;5.00;95.40;;;;;;5081753;28;20952;-63
2023/12/03 06:44:05;;;;;;;3.20;2.83;;;5.00;95.50;;;;;;5085414;28;20617;-63
2023/12/03 06:46:40;;;;;;;2.57;2.33;;;4.90;95.50;;;;;;5079704;28;20200;-63
2023/12/03 06:49:09;;;;;;;4.03;2.77;;;4.90;95.50;;;;;;5080787;28;20283;-63
2023/12/03 06:51:36;;;;;;;3.60;2.83;;;4.90;95.50;;;;;;5084102;28;20552;-63
2023/12/03 06:54:03;;;;;;;3.07;2.67;;;4.90;95.50;;;;;;5088023;28;20209;-63
2023/12/03 06:56:30;;;;;;;4.53;3.03;;;4.80;95.50;;;;;;5081639;28;20202;-63
2023/12/03 06:58:57;;;;;;;5.33;3.30;;;4.80;95.50;;;;;;5085442;28;20211;-63
2023/12/03 07:01:24;;;;;;;6.30;3.17;;;4.80;95.50;;;;;;5081942;28;20258;-63
2023/12/03 07:03:52;;;;;;;3.70;3.07;;;4.80;95.50;;;;;;5079511;28;20327;-63
2023/12/03 07:06:19;;;;;;;4.93;3.37;;;4.80;95.60;;;;;;5104312;28;20193;-63
2023/12/03 07:08:46;;;;;;;4.90;2.87;;;4.80;95.60;;;;;;5102058;28;20188;-63
2023/12/03 07:11:14;;;;;;;6.03;3.30;;;4.80;95.50;;;;;;5100461;28;20220;-63
2023/12/03 07:13:41;;;;;;;5.47;3.30;;;4.80;95.60;;;;;;5106722;28;20200;-63
2023/12/03 07:16:10;;;;;;;6.60;3.53;;;4.80;95.50;;;;;;5103270;28;20197;-63
2023/12/03 07:18:41;;;;;;;5.27;3.63;;;4.90;95.50;;;;;;5104713;28;20195;-63
2023/12/03 07:21:10;;;;;;;6.97;3.87;;;4.90;95.50;;;;;;5103754;28;20363;-63
2023/12/03 07:23:37;;;;;;;8.13;4.77;;;4.90;95.50;;;;;;5093018;28;20201;-63
2023/12/03 07:26:09;;;;;;;6.67;4.10;;;4.80;95.50;;;;;;5099961;28;20207;-63
2023/12/03 07:28:37;;;;;;;5.17;4.10;;;4.90;95.60;;;;;;5102566;28;20205;-63
2023/12/03 07:31:04;;;;;;;5.00;4.17;;;5.00;95.60;;;;;;5102145;28;20220;-63
2023/12/03 07:33:32;;;;;;;11.07;7.63;;;4.90;95.60;;;;;;5103638;28;20629;-63
2023/12/03 07:36:00;;;;;;;15.37;10.00;;;5.00;95.70;;;;;;5100196;28;20266;-63
2023/12/03 07:38:28;;;;;;;9.47;6.67;;;5.10;95.70;;;;;;5104691;28;20196;-63
2023/12/03 07:40:55;;;;;;;9.27;5.00;;;5.10;95.70;;;;;;5101412;28;20207;-63
2023/12/03 07:43:22;;;;;;;5.40;4.00;;;5.20;95.70;;;;;;5104686;28;20599;-63
2023/12/03 07:45:49;;;;;;;5.27;4.10;;;5.20;95.70;;;;;;5101070;28;20228;-63
2023/12/03 07:48:17;;;;;;;4.40;3.43;;;5.30;95.70;;;;;;5084319;28;20200;-63
2023/12/03 07:50:44;;;;;;;3.87;3.47;;;5.30;95.60;;;;;;5098318;28;20294;-63
2023/12/03 07:53:11;;;;;;;7.30;4.03;;;5.40;95.60;;;;;;5104191;28;20226;-63
2023/12/03 07:55:38;;;;;;;6.23;3.70;;;5.50;95.60;;;;;;5105772;28;20201;-63
2023/12/03 07:58:06;;;;;;;6.77;4.93;;;5.50;95.50;;;;;;5106893;28;20192;-63
2023/12/03 08:00:35;;;;;;;7.40;4.60;;;5.60;95.50;;;;;;5086982;28;20204;-63
2023/12/03 08:03:03;;;;;;;6.73;4.60;;;5.70;95.50;;;;;;5100540;28;20650;-63
2023/12/03 08:05:31;;;;;;;7.17;4.67;;;5.80;95.40;;;;;;5087795;28;20236;-63
2023/12/03 08:07:58;;;;;;;6.13;4.33;;;5.90;95.40;;;;;;5067789;28;20280;-64
2023/12/03 08:10:26;;;;;;;5.10;4.23;;;5.90;95.30;;;;;;5086842;28;20725;-63
2023/12/03 08:12:53;;;;;;;5.93;4.47;;;6.00;95.30;;;;;;5090911;28;20205;-63
2023/12/03 08:15:20;;;;;;;5.10;4.50;;;6.10;95.20;;;;;;5089080;28;20205;-63
2023/12/03 08:17:47;;;;;;;6.53;4.37;;;6.20;95.20;;;;;;5083600;28;20198;-63
2023/12/03 08:20:14;;;;;;;4.53;3.63;;;6.30;95.10;;;;;;5083075;28;20219;-63
2023/12/03 08:22:42;;;;;;;5.70;3.93;;;6.40;95.10;;;;;;5086880;28;20202;-63
2023/12/03 08:25:12;;;;;;;5.13;4.40;;;6.40;94.90;;;;;;5073728;28;20519;-63
2023/12/03 08:27:40;;;;;;;4.40;3.70;;;6.50;94.70;;;;;;5083887;28;20633;-63
2023/12/03 08:30:08;;;;;;;8.63;4.30;;;6.60;94.60;;;;;;5064785;28;20262;-63
2023/12/03 08:32:35;;;;;;;4.93;3.90;;;6.70;94.40;;;;;;5053022;28;20223;-63
2023/12/03 08:35:03;;;;;;;4.63;4.07;;;6.80;94.40;;;;;;5092763;28;20620;-63
2023/12/03 08:37:31;;;;;;;4.70;4.20;;;6.90;94.30;;;;;;5071384;28;20297;-63
2023/12/03 08:40:00;;;;;;;5.43;4.30;;;7.00;94.20;;;;;;5076387;28;20297;-63
2023/12/03 08:42:27;;;;;;;7.10;4.57;;;7.10;94.10;;;;;;5083784;28;20207;-63
2023/12/03 08:44:54;;;;;;;6.07;4.10;;;7.10;93.90;;;;;;5086344;28;20198;-63
2023/12/03 08:47:21;;;;;;;4.83;4.33;;;7.20;93.80;;;;;;5085470;28;20194;-63
2023/12/03 08:49:48;;;;;;;5.23;3.90;;;7.30;93.70;;;;;;5085287;28;20195;-63
2023/12/03 08:52:15;;;;;;;4.00;3.20;;;7.40;93.50;;;;;;5083786;28;20230;-63
2023/12/03 08:54:43;;;;;;;3.87;3.47;;;7.50;93.20;;;;;;5084634;28;20614;-63
2023/12/03 08:57:12;;;;;;;4.10;3.70;;;7.50;92.80;;;;;;5083004;28;20196;-63
2023/12/03 08:59:38;;;;;;;5.40;3.77;;;7.50;92.60;;;;;;5083482;28;20221;-63
2023/12/03 09:02:05;;;;;;;6.27;4.23;;;7.60;92.50;;;;;;5081432;28;20263;-63
2023/12/03 09:04:32;;;;;;;6.83;3.50;;;7.60;92.40;;;;;;5081153;28;20242;-63
2023/12/03 09:07:00;;;;;;;4.23;3.83;;;7.60;92.40;;;;;;5082795;28;20200;-63
2023/12/03 09:09:27;;;;;;;5.43;3.57;;;7.70;92.40;;;;;;5084180;28;20561;-63
2023/12/03 09:11:54;;;;;;;3.63;3.30;;;7.70;92.40;;;;;;5087069;28;20246;-63
2023/12/03 09:14:25;;;;;;;3.87;3.47;;;7.80;92.50;;;;;;5083836;28;20208;-63
2023/12/03 09:16:52;;;;;;;4.47;3.30;;;7.80;92.40;;;;;;5087164;28;20206;-62
2023/12/03 09:19:19;;;;;;;3.70;3.30;;;7.90;92.70;;;;;;5055955;28;20214;-63
2023/12/03 09:21:46;;;;;;;3.33;2.87;;;8.00;92.40;;;;;;5082984;28;20603;-63
2023/12/03 09:24:16;;;;;;;3.70;3.03;;;8.00;92.40;;;;;;5082517;28;20274;-63
2023/12/03 09:26:45;;;;;;;4.47;3.13;;;8.10;92.40;;;;;;5090909;28;20198;-63
2023/12/03 09:29:13;;;;;;;4.57;3.13;;;8.20;92.40;;;;;;5082275;28;20203;-63
2023/12/03 09:31:40;;;;;;;3.50;3.20;;;8.20;92.30;;;;;;5083186;28;20216;-63
2023/12/03 09:34:08;;;;;;;4.07;3.47;;;8.30;92.30;;;;;;5083534;28;20205;-63
2023/12/03 09:36:35;;;;;;;5.70;3.10;;;8.40;92.30;;;;;;5082870;28;20643;-63
2023/12/03 09:39:04;;;;;;;3.70;3.03;;;8.40;92.30;;;;;;5081571;28;20298;-63
2023/12/03 09:41:34;;;;;;;4.20;3.10;;;8.50;92.10;;;;;;5065132;28;20209;-63
2023/12/03 09:44:19;;;;;;;3.03;2.67;;;8.60;92.10;;;;;;5083296;28;20224;-62
2023/12/03 09:46:50;;;;;;;3.30;2.90;;;8.70;91.70;;;;;;5084936;28;20585;-63
2023/12/03 09:49:21;;;;;;;5.67;2.93;;;8.80;91.40;;;;;;5083880;28;20204;-63
2023/12/03 09:51:49;;;;;;;9.07;3.10;;;8.80;91.50;;;;;;5064966;28;20211;-63
2023/12/03 09:54:17;;;;;;;5.80;2.97;;;8.90;91.50;;;;;;5082725;28;20234;-62
2023/12/03 09:56:46;;;;;;;5.23;3.57;;;8.90;91.30;;;;;;5080230;28;20270;-63
2023/12/03 09:59:14;;;;;;;6.50;3.00;;;9.00;91.10;;;;;;5087150;28;20200;-62
2023/12/03 10:01:41;;;;;;;6.83;3.00;;;9.10;91.20;;;;;;5067936;28;20199;-62
2023/12/03 10:04:08;;;;;;;3.10;2.80;;;9.10;91.20;;;;;;5080963;28;20296;-63
2023/12/03 10:06:43;;;;;;;6.17;3.00;;;9.20;91.10;;;;;;5085951;28;20632;-62
2023/12/03 10:09:12;;;;;;;3.40;2.97;;;9.30;91.20;;;;;;5085023;28;20215;-62
2023/12/03 10:11:40;;;;;;;4.17;3.30;;;9.30;91.10;;;;;;5083610;28;20222;-62
2023/12/03 10:14:09;;;;;;;3.37;2.77;;;9.40;90.90;;;;;;5082249;28;20200;-63
2023/12/03 10:16:38;;;;;;;4.80;2.47;;;9.50;91.00;;;;;;5068841;28;20264;-62
2023/12/03 10:19:05;;;;;;;3.17;2.43;;;9.50;90.70;;;;;;5085089;28;20683;-62
2023/12/03 10:21:33;;;;;;;7.47;2.70;;;9.60;90.00;;;;;;5080434;28;20216;-63
2023/12/03 10:24:03;;;;;;;4.47;2.50;;;9.70;90.00;;;;;;5082423;28;20211;-62
2023/12/03 10:26:31;;;;;;;3.63;2.53;;;9.80;90.10;;;;;;5085006;28;20626;-62
2023/12/03 10:28:58;;;;;;;6.03;2.33;;;9.90;90.00;;;;;;5083959;28;20207;-62
2023/12/03 10:31:26;;;;;;;2.63;2.17;;;9.90;88.10;;;;;;5068611;28;20224;-61
2023/12/03 10:33:53;;;;;;;3.73;2.07;;;10.00;87.20;;;;;;5085027;28;20619;-62
2023/12/03 10:36:20;;;;;;;3.80;2.63;;;10.10;87.10;;;;;;5048356;28;20207;-62
2023/12/03 10:38:47;;;;;;;3.00;2.30;;;10.10;86.80;;;;;;5085961;28;20276;-62
2023/12/03 10:41:14;;;;;;;4.23;2.53;;;10.20;87.10;;;;;;5080420;28;20506;-62
2023/12/03 10:43:43;;;;;;;3.07;2.40;;;10.30;86.90;;;;;;5062769;28;20220;-62
2023/12/03 10:46:13;;;;;;;4.37;2.97;;;10.30;86.60;;;;;;5078646;28;20199;-63
2023/12/03 10:48:40;;;;;;;5.43;2.97;;;10.40;86.30;;;;;;5079883;28;20217;-62
2023/12/03 10:51:10;;;;;;;2.87;2.40;;;10.40;86.10;;;;;;5081058;28;20210;-63
2023/12/03 10:53:38;;;;;;;4.97;2.63;;;10.50;85.50;;;;;;5081214;28;20235;-62
2023/12/03 10:56:07;;;;;;;3.37;2.40;;;10.50;85.50;;;;;;5069720;28;20242;-63
2023/12/03 10:58:38;;;;;;;3.93;2.63;;;10.60;85.10;;;;;;5080705;28;20612;-63
2023/12/03 11:01:19;;;;;;;3.67;2.83;;;10.60;84.30;;;;;;5083233;28;20215;-62
2023/12/03 11:03:54;;;;;;;3.80;3.00;;;10.70;84.50;;;;;;5032483;28;1445762;-62
2023/12/03 11:06:23;;;;;;;3.53;2.60;;;10.80;84.40;;;;;;5081644;28;20191;-62
2023/12/03 11:08:52;;;;;;;5.77;2.23;;;10.80;83.70;;;;;;5083492;28;20201;-62
2023/12/03 11:11:22;;;;;;;3.73;2.90;;;10.80;84.10;;;;;;5084320;28;20224;-62
2023/12/03 11:13:56;;;;;;;4.47;2.90;;;10.90;84.20;;;;;;5082233;28;20590;-62
2023/12/03 11:16:31;;;;;;;2.97;2.50;;;11.00;83.80;;;;;;5078758;28;20253;-62
2023/12/03 11:19:13;;;;;;;2.90;2.47;;;11.10;83.50;;;;;;5082333;28;20199;-62
2023/12/03 11:22:09;;;;;;;4.97;2.57;;;11.20;83.10;;;;;;5080453;28;20217;-62
2023/12/03 11:24:51;;;;;;;5.23;2.53;;;11.30;82.70;;;;;;5078768;28;20205;-63
2023/12/03 11:27:24;;;;;;;5.00;2.43;;;11.40;82.40;;;;;;5080516;28;20629;-63
2023/12/03 11:29:53;;;;;;;3.27;2.63;;;11.50;81.90;;;;;;5090013;28;20614;-63
2023/12/03 11:32:23;;;;;;;3.73;2.73;;;11.60;81.70;;;;;;5077911;28;20220;-62
2023/12/03 11:35:06;;;;;;;5.60;2.90;;;11.70;81.20;;;;;;5082839;28;20286;-62
2023/12/03 11:37:34;;;;;;;4.63;2.60;;;11.70;80.90;;;;;;5080151;28;20259;-62
2023/12/03 11:40:08;;;;;;;7.00;2.87;;;11.80;80.00;;;;;;5082149;28;20691;-63
2023/12/03 11:42:43;;;;;;;4.87;3.27;;;11.80;79.20;;;;;;5082367;28;20513;-62
2023/12/03 11:45:22;;;;;;;4.20;3.00;;;11.80;79.10;;;;;;5077372;28;20322;-62
2023/12/03 11:48:16;;;;;;;4.80;2.70;;;12.00;79.30;;;;;;5076771;28;20207;-62
2023/12/03 11:50:46;;;;;;;5.20;2.80;;;12.00;78.50;;;;;;5078608;28;20328;-62
2023/12/03 11:53:15;;;;;;;4.07;2.77;;;12.10;77.10;;;;;;5086087;28;20218;-63
2023/12/03 11:55:49;;;;;;;4.30;2.37;;;12.10;76.50;;;;;;5081712;28;20225;-63
2023/12/03 11:58:16;;;;;;;2.90;2.70;;;11.90;76.00;;;;;;5078924;28;20638;-62
2023/12/03 12:00:46;;;;;;;5.73;2.67;;;11.80;76.80;;;;;;5079572;28;20287;-62
2023/12/03 12:03:14;;;;;;;4.47;2.93;;;11.80;77.80;;;;;;5084613;28;20249;-62
2023/12/03 12:05:49;;;;;;;3.07;2.60;;;11.80;78.20;;;;;;5077729;28;20201;-62
2023/12/03 12:08:21;;;;;;;4.37;3.03;;;11.90;78.00;;;;;;5080582;28;20286;-62
2023/12/03 12:10:49;;;;;;;3.50;2.10;;;11.90;77.80;;;;;;5080995;28;20289;-63
2023/12/03 12:13:21;;;;;;;3.43;2.20;;;12.00;77.90;;;;;;5080901;28;20247;-62
2023/12/03 12:15:48;;;;;;;3.60;2.27;;;12.10;77.80;;;;;;5082856;28;20528;-63
2023/12/03 12:18:19;;;;;;;2.13;1.93;;;12.20;76.80;;;;;;5068212;28;20207;-62
2023/12/03 12:20:47;;;;;;;3.60;2.50;;;12.30;74.90;;;;;;5084610;28;20201;-62
2023/12/03 12:23:15;;;;;;;3.97;2.77;;;12.30;74.80;;;;;;5082313;28;20205;-62
2023/12/03 12:25:42;;;;;;;6.40;2.57;;;12.30;75.40;;;;;;5063306;28;20233;-62
2023/12/03 12:28:10;;;;;;;5.43;2.30;;;12.40;75.20;;;;;;5078872;28;20202;-63
2023/12/03 12:30:40;;;;;;;2.10;1.90;;;12.40;74.10;;;;;;5083259;28;20207;-62
2023/12/03 12:33:08;;;;;;;6.33;2.13;;;12.40;74.10;;;;;;5085599;28;20319;-62
2023/12/03 12:35:35;;;;;;;1.90;1.63;;;12.40;73.60;;;;;;5083291;28;20202;-62
2023/12/03 12:38:07;;;;;;;5.63;2.40;;;12.40;73.40;;;;;;5084644;28;20213;-63
2023/12/03 12:40:38;;;;;;;2.83;2.07;;;12.30;72.50;;;;;;5087729;28;20198;-63
2023/12/03 12:43:11;;;;;;;2.00;1.80;;;12.20;72.80;;;;;;5085400;28;20207;-62
2023/12/03 12:45:39;;;;;;;4.23;2.03;;;12.00;73.10;;;;;;5078326;28;20205;-63
2023/12/03 12:48:23;;;;;;;3.53;2.10;;;11.80;73.70;;;;;;5080021;28;20208;-63
2023/12/03 12:50:51;;;;;;;3.50;2.20;;;11.60;74.30;;;;;;5081468;28;20629;-62
2023/12/03 12:53:19;;;;;;;2.50;1.93;;;11.50;74.90;;;;;;5090192;28;20687;-63
2023/12/03 12:55:46;;;;;;;2.83;1.80;;;11.50;75.00;;;;;;5074086;28;20220;-63
2023/12/03 12:58:13;;;;;;;3.07;1.77;;;11.50;73.90;;;;;;5082117;28;20204;-62
2023/12/03 13:00:40;;;;;;;4.67;2.10;;;11.50;73.50;;;;;;5084298;28;20208;-63